createdAt,value
2023-01-11T00:01:53.849Z,92.44
2023-01-11T00:04:30.693Z,92.61
2023-01-11T00:07:00.692Z,90.65
2023-01-11T00:09:33.232Z,90.91
2023-01-11T00:12:02.948Z,91.38
2023-01-11T00:14:32.708Z,90.26
2023-01-11T00:17:02.547Z,89.63
2023-01-11T00:19:32.497Z,89.71
2023-01-11T00:22:02.606Z,89.81
2023-01-11T00:24:35.407Z,89.49
2023-01-11T00:27:07.875Z,89.44
2023-01-11T00:29:38.129Z,88.19
2023-01-11T00:32:09.584Z,87.43
2023-01-11T00:34:39.545Z,88.89
2023-01-11T00:37:11.088Z,89.76
2023-01-11T00:39:44.885Z,89.79
2023-01-11T00:42:27.273Z,91.12
2023-01-11T00:45:09.785Z,91.33
2023-01-11T00:47:52.078Z,91.06
2023-01-11T00:50:22.632Z,92.18
2023-01-11T00:52:53.168Z,91.70
2023-01-11T00:55:26.785Z,91.77
2023-01-11T00:57:56.962Z,92.40
2023-01-11T01:00:27.497Z,92.44
2023-01-11T01:02:58.065Z,92.79
2023-01-11T01:05:28.345Z,92.73
2023-01-11T01:07:58.705Z,91.98
2023-01-11T01:10:31.881Z,91.50
2023-01-11T01:13:14.144Z,89.75
2023-01-11T01:15:44.335Z,88.88
2023-01-11T01:18:14.209Z,87.60
2023-01-11T01:20:44.063Z,86.89
2023-01-11T01:23:14.046Z,85.89
2023-01-11T01:25:46.576Z,86.23
2023-01-11T01:28:16.908Z,85.82
2023-01-11T01:30:47.200Z,86.78
2023-01-11T01:33:17.002Z,86.53
2023-01-11T01:35:46.789Z,85.77
2023-01-11T01:38:16.447Z,87.52
2023-01-11T01:40:49.872Z,90.80
2023-01-11T01:43:20.162Z,91.03
2023-01-11T01:45:50.431Z,91.75
2023-01-11T01:48:21.709Z,91.21
2023-01-11T01:50:53.010Z,91.67
2023-01-11T01:53:24.401Z,93.93
2023-01-11T01:55:57.867Z,93.98
2023-01-11T01:58:29.183Z,94.93
2023-01-11T02:01:18.827Z,97.23
2023-01-11T02:03:48.417Z,98.29
2023-01-11T02:06:17.938Z,99.13
2023-01-11T02:08:49.149Z,99.40
2023-01-11T02:11:33.608Z,100.00
2023-01-11T02:14:05.613Z,99.89
2023-01-11T02:16:35.372Z,99.43
2023-01-11T02:19:05.061Z,98.66
2023-01-11T02:21:38.848Z,98.53
2023-01-11T02:24:24.728Z,95.83
2023-01-11T02:27:08.901Z,93.39
2023-01-11T02:29:46.143Z,92.87
2023-01-11T02:32:21.218Z,93.45
2023-01-11T02:34:53.667Z,92.73
2023-01-11T02:37:29.684Z,91.16
2023-01-11T02:40:03.057Z,88.70
2023-01-11T02:42:50.802Z,88.24
2023-01-11T02:45:31.900Z,88.38
2023-01-11T02:48:02.885Z,88.82
2023-01-11T02:50:34.829Z,90.11
2023-01-11T02:53:07.349Z,90.00
2023-01-11T02:55:39.400Z,90.18
2023-01-11T02:58:09.741Z,89.60
2023-01-11T03:00:43.054Z,88.17
2023-01-11T03:03:15.815Z,87.35
2023-01-11T03:05:48.068Z,87.42
2023-01-11T03:08:50.402Z,87.39
2023-01-11T03:11:47.833Z,86.54
2023-01-11T03:14:20.523Z,86.15
2023-01-11T03:16:55.327Z,86.13
2023-01-11T03:19:29.279Z,86.10
2023-01-11T03:22:02.630Z,86.14
2023-01-11T03:24:34.576Z,85.06
2023-01-11T03:27:13.240Z,87.29
2023-01-11T03:29:44.784Z,89.23
2023-01-11T03:32:21.434Z,89.42
2023-01-11T03:34:54.583Z,88.97
2023-01-11T03:37:26.112Z,87.74
2023-01-11T03:39:58.434Z,86.76
2023-01-11T03:42:28.029Z,86.45
2023-01-11T03:44:58.362Z,85.99
2023-01-11T03:47:30.661Z,85.78
2023-01-11T03:50:01.671Z,85.15
2023-01-11T03:52:32.345Z,85.42
2023-01-11T03:55:01.928Z,86.63
2023-01-11T03:57:33.894Z,89.02
2023-01-11T04:00:03.478Z,88.57
2023-01-11T04:02:39.742Z,88.38
2023-01-11T04:05:09.881Z,87.87
2023-01-11T04:07:39.472Z,86.82
2023-01-11T04:10:10.142Z,86.76
2023-01-11T04:12:39.743Z,88.19
2023-01-11T04:15:10.939Z,88.27
2023-01-11T04:17:43.174Z,89.31
2023-01-11T04:20:13.844Z,89.90
2023-01-11T04:22:43.511Z,89.71
2023-01-11T04:25:13.152Z,90.42
2023-01-11T04:27:43.382Z,89.16
2023-01-11T04:30:14.405Z,88.41
2023-01-11T04:32:46.607Z,88.03
2023-01-11T04:35:16.373Z,87.20
2023-01-11T04:37:45.992Z,87.31
2023-01-11T04:40:16.276Z,86.67
2023-01-11T04:42:43.283Z,86.80
2023-01-11T04:45:13.592Z,88.81
2023-01-11T04:47:43.306Z,88.68
2023-01-11T04:50:15.928Z,89.52
2023-01-11T04:52:45.535Z,90.16
2023-01-11T04:55:15.108Z,92.08
2023-01-11T04:57:46.157Z,93.70
2023-01-11T05:00:16.116Z,94.67
2023-01-11T05:02:45.857Z,93.92
2023-01-11T05:05:18.361Z,95.85
2023-01-11T05:07:48.235Z,97.81
2023-01-11T05:10:20.789Z,99.28
2023-01-11T05:12:50.806Z,98.85
2023-01-11T05:15:20.497Z,96.82
2023-01-11T05:17:50.439Z,96.19
2023-01-11T05:20:22.878Z,95.27
2023-01-11T05:22:52.713Z,95.68
2023-01-11T05:25:22.567Z,96.41
2023-01-11T05:27:52.540Z,96.23
2023-01-11T05:30:22.470Z,96.15
2023-01-11T05:32:52.327Z,95.02
2023-01-11T05:35:24.835Z,96.30
2023-01-11T05:37:54.652Z,96.82
2023-01-11T05:40:24.428Z,96.82
2023-01-11T05:42:54.081Z,98.52
2023-01-11T05:45:30.002Z,99.66
2023-01-11T05:48:00.012Z,100.00
2023-01-11T05:50:32.879Z,100.00
2023-01-11T05:53:04.121Z,100.00
2023-01-11T05:55:34.290Z,100.00
2023-01-11T05:58:04.430Z,100.00
2023-01-11T06:00:34.280Z,100.00
2023-01-11T06:03:04.738Z,100.00
2023-01-11T06:05:38.855Z,100.00
2023-01-11T06:08:08.756Z,100.00
2023-01-11T06:10:38.694Z,100.00
2023-01-11T06:13:20.980Z,98.46
2023-01-11T06:15:51.058Z,98.54
2023-01-11T06:18:20.779Z,97.87
2023-01-11T06:20:54.837Z,97.49
2023-01-11T06:23:24.470Z,97.49
2023-01-11T06:25:54.213Z,96.70
2023-01-11T06:28:23.866Z,96.05
2023-01-11T06:30:56.959Z,97.17
2023-01-11T06:33:27.423Z,96.22
2023-01-11T06:35:59.903Z,95.24
2023-01-11T06:38:29.600Z,94.19
2023-01-11T06:41:00.502Z,92.30
2023-01-11T06:43:30.904Z,91.83
2023-01-11T06:46:00.758Z,91.21
2023-01-11T06:48:30.722Z,92.10
2023-01-11T06:51:02.989Z,94.01
2023-01-11T06:53:32.717Z,95.40
2023-01-11T06:56:02.296Z,94.50
2023-01-11T06:58:32.099Z,93.98
2023-01-11T07:01:01.779Z,93.95
2023-01-11T07:03:31.533Z,95.01
2023-01-11T07:06:04.504Z,96.58
2023-01-11T07:08:34.133Z,96.40
2023-01-11T07:11:04.100Z,96.66
2023-01-11T07:13:33.676Z,96.40
2023-01-11T07:16:03.270Z,96.06
2023-01-11T07:18:33.532Z,94.96
2023-01-11T07:21:05.788Z,94.24
2023-01-11T07:23:35.328Z,93.27
2023-01-11T07:26:05.271Z,94.64
2023-01-11T07:28:34.797Z,95.21
2023-01-11T07:31:04.356Z,94.48
2023-01-11T07:33:33.860Z,93.70
2023-01-11T07:36:06.517Z,92.87
2023-01-11T07:38:36.060Z,91.93
2023-01-11T07:41:26.154Z,92.42
2023-01-11T07:43:53.108Z,92.63
2023-01-11T07:46:22.880Z,92.06
2023-01-11T07:48:52.604Z,92.29
2023-01-11T07:51:24.745Z,92.70
2023-01-11T07:53:54.271Z,92.55
2023-01-11T07:56:23.782Z,91.96
2023-01-11T07:58:53.296Z,91.20
2023-01-11T08:01:22.789Z,90.61
2023-01-11T08:03:52.460Z,90.31
2023-01-11T08:06:24.621Z,89.90
2023-01-11T08:08:54.127Z,90.08
2023-01-11T08:11:36.120Z,91.59
2023-01-11T08:14:18.110Z,92.70
2023-01-11T08:16:47.688Z,92.30
2023-01-11T08:19:17.242Z,92.06
2023-01-11T08:21:49.337Z,90.71
2023-01-11T08:24:18.933Z,90.46
2023-01-11T08:26:48.759Z,90.40
2023-01-11T08:29:18.353Z,91.08
2023-01-11T08:31:47.912Z,92.19
2023-01-11T08:34:17.455Z,92.92
2023-01-11T08:36:49.528Z,92.53
2023-01-11T08:39:19.022Z,94.24
2023-01-11T08:41:48.531Z,95.21
2023-01-11T08:44:29.006Z,96.50
2023-01-11T08:47:02.522Z,99.63
2023-01-11T08:49:32.052Z,100.00
2023-01-11T08:52:04.484Z,100.00
2023-01-11T08:54:33.973Z,100.00
2023-01-11T08:57:03.483Z,100.00
2023-01-11T08:59:32.976Z,99.53
2023-01-11T09:02:02.851Z,97.00
2023-01-11T09:04:33.932Z,96.13
2023-01-11T09:07:06.086Z,95.42
2023-01-11T09:09:35.589Z,94.71
2023-01-11T09:12:05.932Z,94.53
2023-01-11T09:14:35.561Z,93.45
2023-01-11T09:17:05.070Z,91.69
2023-01-11T09:19:34.814Z,91.98
2023-01-11T09:22:06.928Z,93.15
2023-01-11T09:24:36.422Z,93.79
2023-01-11T09:27:06.122Z,93.08
2023-01-11T09:29:37.447Z,92.87
2023-01-11T09:32:07.777Z,93.61
2023-01-11T09:34:37.312Z,93.18
2023-01-11T09:37:09.623Z,94.08
2023-01-11T09:39:39.938Z,95.04
2023-01-11T09:42:31.424Z,94.83
2023-01-11T09:45:03.193Z,93.51
2023-01-11T09:47:36.697Z,92.43
2023-01-11T09:50:08.391Z,92.20
2023-01-11T09:52:42.264Z,92.41
2023-01-11T09:55:15.378Z,93.15
2023-01-11T09:58:03.800Z,93.23
2023-01-11T10:00:49.761Z,92.44
2023-01-11T10:03:38.935Z,90.26
2023-01-11T10:06:13.270Z,89.60
2023-01-11T10:18:22.257Z,88.12
2023-01-11T10:18:38.574Z,89.00
2023-01-11T10:20:37.899Z,88.88
2023-01-11T10:23:08.718Z,90.43
2023-01-11T10:25:46.545Z,89.82
2023-01-11T10:28:20.164Z,89.31
2023-01-11T10:31:07.905Z,87.99
2023-01-11T10:33:50.580Z,86.93
2023-01-11T10:36:35.550Z,87.14
2023-01-11T10:39:15.983Z,87.12
2023-01-11T10:41:55.103Z,86.75
2023-01-11T10:44:31.391Z,86.82
2023-01-11T10:47:00.904Z,85.71
2023-01-11T10:49:36.511Z,84.74
2023-01-11T10:52:12.244Z,84.74
2023-01-11T10:54:46.843Z,85.22
2023-01-11T10:57:23.083Z,84.76
2023-01-11T11:00:12.171Z,83.58
2023-01-11T11:02:52.661Z,83.28
2023-01-11T11:05:27.702Z,83.33
2023-01-11T11:07:59.075Z,83.54
2023-01-11T11:10:31.635Z,82.62
2023-01-11T11:13:07.500Z,81.92
2023-01-11T11:15:38.647Z,81.70
2023-01-11T11:18:07.989Z,81.47
2023-01-11T11:20:37.511Z,80.67
2023-01-11T11:23:07.352Z,80.82
2023-01-11T11:25:38.258Z,81.24
2023-01-11T11:28:10.908Z,80.87
2023-01-11T11:30:41.616Z,81.64
2023-01-11T11:33:15.323Z,81.31
2023-01-11T11:35:46.368Z,81.21
2023-01-11T11:38:22.772Z,80.81
2023-01-11T11:41:01.454Z,81.01
2023-01-11T11:43:33.783Z,81.43
2023-01-11T11:46:03.954Z,81.35
2023-01-11T11:48:34.513Z,81.55
2023-01-11T11:51:05.078Z,82.27
2023-01-11T11:53:43.007Z,82.61
2023-01-11T11:56:20.238Z,82.39
2023-01-11T11:58:52.373Z,81.85
2023-01-11T12:01:26.781Z,82.18
2023-01-11T12:03:57.212Z,82.67
2023-01-11T12:06:27.870Z,83.10
2023-01-11T12:08:57.374Z,83.35
2023-01-11T12:11:32.792Z,83.74
2023-01-11T12:14:07.022Z,83.34
2023-01-11T12:16:38.575Z,84.52
2023-01-11T12:19:32.480Z,84.33
2023-01-11T12:22:14.998Z,84.05
2023-01-11T12:24:44.508Z,84.98
2023-01-11T12:27:19.250Z,84.52
2023-01-11T12:30:00.197Z,84.29
2023-01-11T12:32:56.386Z,83.44
2023-01-11T12:35:33.356Z,82.26
2023-01-11T12:38:30.409Z,80.55
2023-01-11T12:41:08.726Z,80.85
2023-01-11T12:43:54.233Z,80.73
2023-01-11T12:46:29.046Z,81.86
2023-01-11T12:49:05.523Z,81.29
2023-01-11T12:51:45.358Z,79.87
2023-01-11T12:54:26.456Z,80.73
2023-01-11T12:57:08.804Z,78.87
2023-01-11T12:59:58.345Z,77.85
2023-01-11T13:02:40.409Z,77.71
2023-01-11T13:05:17.352Z,77.88
2023-01-11T13:07:52.627Z,75.45
2023-01-11T13:10:30.300Z,76.48
2023-01-11T13:13:02.714Z,75.93
2023-01-11T13:15:41.949Z,73.40
2023-01-11T13:18:19.060Z,76.41
2023-01-11T13:21:01.647Z,74.86
2023-01-11T13:23:35.895Z,74.06
2023-01-11T13:26:12.264Z,73.43
2023-01-11T13:28:42.421Z,74.17
2023-01-11T13:31:13.465Z,73.45
2023-01-11T13:33:46.569Z,74.08
2023-01-11T13:36:23.254Z,72.93
2023-01-11T13:38:56.400Z,72.27
2023-01-11T13:41:27.676Z,70.44
2023-01-11T13:43:58.191Z,70.83
2023-01-11T13:46:41.530Z,71.06
2023-01-11T13:49:18.354Z,72.02
2023-01-11T13:51:51.233Z,70.43
2023-01-11T13:54:23.302Z,71.65
2023-01-11T13:56:55.258Z,70.15
2023-01-11T13:59:26.117Z,71.64
2023-01-11T14:01:57.667Z,70.36
2023-01-11T14:04:32.516Z,69.07
2023-01-11T14:07:17.308Z,70.17
2023-01-11T14:10:22.746Z,70.17
2023-01-11T14:13:13.572Z,70.41
2023-01-11T14:15:44.088Z,69.66
2023-01-11T14:18:17.795Z,72.22
2023-01-11T14:20:54.467Z,70.64
2023-01-11T14:23:24.625Z,70.28
2023-01-11T14:26:06.533Z,70.17
2023-01-11T14:28:44.357Z,70.72
2023-01-11T14:31:33.369Z,70.56
2023-01-11T14:34:33.028Z,70.38
2023-01-11T14:37:47.531Z,71.24
2023-01-11T14:40:40.620Z,71.34
2023-01-11T14:43:34.512Z,70.64
2023-01-11T14:46:40.782Z,70.11
2023-01-11T14:49:14.664Z,71.17
2023-01-11T14:51:53.415Z,71.70
2023-01-11T14:54:24.614Z,70.83
2023-01-11T14:56:58.297Z,71.99
2023-01-11T14:59:38.561Z,71.44
2023-01-11T15:02:27.822Z,69.67
2023-01-11T15:05:12.981Z,69.63
2023-01-11T15:07:45.726Z,68.36
2023-01-11T15:10:43.679Z,68.76
2023-01-11T15:13:18.330Z,68.48
2023-01-11T15:16:00.455Z,68.11
2023-01-11T15:18:30.068Z,69.43
2023-01-11T15:21:00.797Z,68.77
2023-01-11T15:23:30.401Z,68.98
2023-01-11T15:26:03.830Z,68.47
2023-01-11T15:28:57.100Z,69.17
2023-01-11T15:31:35.011Z,67.75
2023-01-11T15:34:06.174Z,68.22
2023-01-11T15:36:50.537Z,68.48
2023-01-11T15:39:20.097Z,68.43
2023-01-11T15:42:08.380Z,67.00
2023-01-11T15:45:00.013Z,68.09
2023-01-11T15:47:50.881Z,68.42
2023-01-11T15:50:35.724Z,68.21
2023-01-11T15:53:21.321Z,67.87
2023-01-11T15:56:25.825Z,67.88
2023-01-11T15:59:14.644Z,67.92
2023-01-11T16:02:13.055Z,69.13
2023-01-11T16:04:43.483Z,68.22
2023-01-11T16:07:16.801Z,68.37
2023-01-11T16:10:07.448Z,69.84
2023-01-11T16:12:53.160Z,71.08
2023-01-11T16:15:38.350Z,68.24
2023-01-11T16:18:15.055Z,67.94
2023-01-11T16:20:45.895Z,69.20
2023-01-11T16:23:21.493Z,70.78
2023-01-11T16:25:53.531Z,71.84
2023-01-11T16:28:23.151Z,72.45
2023-01-11T16:30:58.619Z,71.41
2023-01-11T16:33:32.075Z,71.48
2023-01-11T16:36:09.828Z,72.36
2023-01-11T16:38:44.729Z,72.38
2023-01-11T16:41:14.483Z,70.31
2023-01-11T16:43:49.467Z,69.35
2023-01-11T16:46:40.712Z,70.23
2023-01-11T16:49:14.255Z,70.58
2023-01-11T16:51:43.768Z,69.97
2023-01-11T16:54:14.555Z,71.19
2023-01-11T16:56:44.248Z,70.26
2023-01-11T16:59:24.512Z,70.13
2023-01-11T17:01:54.983Z,70.73
2023-01-11T17:04:35.025Z,71.24
2023-01-11T17:07:15.107Z,72.58
2023-01-11T17:09:44.700Z,72.45
2023-01-11T17:12:16.436Z,72.24
2023-01-11T17:14:54.355Z,73.23
2023-01-11T17:17:25.320Z,72.48
2023-01-11T17:19:58.804Z,72.62
2023-01-11T17:22:29.743Z,72.22
2023-01-11T17:25:00.721Z,72.15
2023-01-11T17:27:33.142Z,72.80
2023-01-11T17:30:03.159Z,73.59
2023-01-11T17:32:37.398Z,72.92
2023-01-11T17:35:13.459Z,72.94
2023-01-11T17:37:43.403Z,72.81
2023-01-11T17:40:22.936Z,74.05
2023-01-11T17:43:05.036Z,73.21
2023-01-11T17:45:34.894Z,73.40
2023-01-11T17:48:13.163Z,74.20
2023-01-11T17:50:51.551Z,74.39
2023-01-11T17:53:25.728Z,74.31
2023-01-11T17:55:56.245Z,74.02
2023-01-11T17:58:28.500Z,74.44
2023-01-11T18:01:23.419Z,74.27
2023-01-11T18:03:54.151Z,74.25
2023-01-11T18:06:29.796Z,74.43
2023-01-11T18:08:59.694Z,74.23
2023-01-11T18:11:30.633Z,74.14
2023-01-11T18:14:02.196Z,74.46
2023-01-11T18:16:32.117Z,74.05
2023-01-11T18:19:01.938Z,74.20
2023-01-11T18:21:44.708Z,74.33
2023-01-11T18:24:43.359Z,73.55
2023-01-11T18:27:19.175Z,73.02
2023-01-11T18:29:50.768Z,73.75
2023-01-11T18:32:21.039Z,74.06
2023-01-11T18:34:52.718Z,73.96
2023-01-11T18:37:25.738Z,73.91
2023-01-11T18:39:55.648Z,74.11
2023-01-11T18:42:28.837Z,74.26
2023-01-11T18:44:58.777Z,73.52
2023-01-11T18:47:31.367Z,73.24
2023-01-11T18:50:01.374Z,73.48
2023-01-11T18:52:34.562Z,74.36
2023-01-11T18:55:05.785Z,74.23
2023-01-11T18:57:37.339Z,75.00
2023-01-11T19:00:08.497Z,75.14
2023-01-11T19:02:42.262Z,74.69
2023-01-11T19:05:14.225Z,74.93
2023-01-11T19:07:47.163Z,75.58
2023-01-11T19:10:17.666Z,75.28
2023-01-11T19:12:47.877Z,75.74
2023-01-11T19:15:17.981Z,75.31
2023-01-11T19:17:48.171Z,75.57
2023-01-11T19:20:20.108Z,75.60
2023-01-11T19:22:52.837Z,75.53
2023-01-11T19:25:23.047Z,75.67
2023-01-11T19:27:54.975Z,75.90
2023-01-11T19:30:25.577Z,75.84
2023-01-11T19:32:55.619Z,76.69
2023-01-11T19:35:25.593Z,76.85
2023-01-11T19:37:57.816Z,76.66
2023-01-11T19:40:27.938Z,76.08
2023-01-11T19:42:57.901Z,76.30
2023-01-11T19:45:30.611Z,75.14
2023-01-11T19:48:02.067Z,74.41
2023-01-11T19:50:32.199Z,73.58
2023-01-11T19:53:04.774Z,73.48
2023-01-11T19:55:34.527Z,73.66
2023-01-11T19:58:04.731Z,74.28
2023-01-11T20:00:34.609Z,75.44
2023-01-11T20:03:06.288Z,75.20
2023-01-11T20:05:36.099Z,75.63
2023-01-11T20:08:09.367Z,77.39
2023-01-11T20:10:39.114Z,78.83
2023-01-11T20:13:08.779Z,78.08
2023-01-11T20:15:40.540Z,76.90
2023-01-11T20:18:10.897Z,78.65
2023-01-11T20:20:41.032Z,77.98
2023-01-11T20:23:13.535Z,78.58
2023-01-11T20:25:43.195Z,78.70
2023-01-11T20:28:12.776Z,77.43
2023-01-11T20:30:42.730Z,78.41
2023-01-11T20:33:12.261Z,77.12
2023-01-11T20:35:41.939Z,76.50
2023-01-11T20:38:14.236Z,76.10
2023-01-11T20:40:43.813Z,76.65
2023-01-11T20:43:13.621Z,76.61
2023-01-11T20:45:43.339Z,77.05
2023-01-11T20:48:20.461Z,77.21
2023-01-11T20:50:49.986Z,77.28
2023-01-11T20:53:22.327Z,77.23
2023-01-11T20:55:51.942Z,77.50
2023-01-11T20:58:21.937Z,77.20
2023-01-11T21:00:51.553Z,76.85
2023-01-11T21:03:21.457Z,77.23
2023-01-11T21:05:53.816Z,76.76
2023-01-11T21:08:26.204Z,77.30
2023-01-11T21:10:55.779Z,76.69
2023-01-11T21:13:25.407Z,76.08
2023-01-11T21:15:54.985Z,76.45
2023-01-11T21:18:24.631Z,76.58
2023-01-11T21:20:54.339Z,76.88
2023-01-11T21:23:26.479Z,76.74
2023-01-11T21:25:56.333Z,77.05
2023-01-11T21:28:26.184Z,77.04
2023-01-11T21:31:04.538Z,77.42
2023-01-11T21:33:34.266Z,77.25
2023-01-11T21:36:07.749Z,77.26
2023-01-11T21:38:40.403Z,76.61
2023-01-11T21:41:10.749Z,76.95
2023-01-11T21:43:42.412Z,77.03
2023-01-11T21:46:15.647Z,76.59
2023-01-11T21:48:45.704Z,76.67
2023-01-11T21:51:20.737Z,77.13
2023-01-11T21:53:53.210Z,77.38
2023-01-11T21:56:23.017Z,76.79
2023-01-11T21:58:52.673Z,76.36
2023-01-11T22:01:22.867Z,76.06
2023-01-11T22:03:52.882Z,76.35
2023-01-11T22:06:22.941Z,76.99
2023-01-11T22:08:55.376Z,76.51
2023-01-11T22:11:25.694Z,76.44
2023-01-11T22:13:55.196Z,75.72
2023-01-11T22:16:25.168Z,76.16
2023-01-11T22:18:54.723Z,76.06
2023-01-11T22:21:24.330Z,75.96
2023-01-11T22:23:58.698Z,75.93
2023-01-11T22:26:30.312Z,75.86
2023-01-11T22:29:15.394Z,75.78
2023-01-11T22:31:47.416Z,75.32
2023-01-11T22:34:17.569Z,75.45
2023-01-11T22:36:47.794Z,75.40
2023-01-11T22:39:20.866Z,75.09
2023-01-11T22:41:51.418Z,75.87
2023-01-11T22:44:21.224Z,75.38
2023-01-11T22:46:51.323Z,75.35
2023-01-11T22:49:21.114Z,75.67
2023-01-11T22:51:50.799Z,75.21
2023-01-11T22:54:23.114Z,75.33
2023-01-11T22:56:53.127Z,74.82
2023-01-11T22:59:22.700Z,74.07
2023-01-11T23:01:52.773Z,75.69
2023-01-11T23:04:22.692Z,76.64
2023-01-11T23:06:52.699Z,77.66
2023-01-11T23:09:25.367Z,77.21
2023-01-11T23:12:08.167Z,76.04
2023-01-11T23:14:38.466Z,75.43
2023-01-11T23:17:09.076Z,75.06
2023-01-11T23:19:39.074Z,74.59
2023-01-11T23:22:08.988Z,74.67
2023-01-11T23:24:41.643Z,74.43
2023-01-11T23:27:11.609Z,73.39
2023-01-11T23:29:41.468Z,73.79
2023-01-11T23:32:11.287Z,71.84
2023-01-11T23:34:41.055Z,72.48
2023-01-11T23:37:12.881Z,72.80
2023-01-11T23:39:45.290Z,72.63
2023-01-11T23:42:27.620Z,72.73
2023-01-11T23:44:57.355Z,71.73
2023-01-11T23:47:25.593Z,72.00
2023-01-11T23:49:56.399Z,72.55
2023-01-11T23:52:27.766Z,71.80
2023-01-11T23:55:00.690Z,71.35
2023-01-11T23:57:30.599Z,71.75
